This is the latest recevied weather packets stored in our database for station/object OM8AKX-4. If no packets are shown the sender has not sent any weather packets the latest 1 day(s).
| Time | Temp. | Humidity | Pressure | Rain* | Wind** | Luminosity | Snow |
|---|---|---|---|---|---|---|---|
| 1778049731 | 13.33° C | 64% | 871.8 hPa | - | - | - | - |
| 1778048831 | 13.33° C | 66% | 871.7 hPa | - | - | - | - |
| 1778047931 | 12.78° C | 68% | 871.5 hPa | - | - | - | - |
| 1778047031 | 12.78° C | 67% | 871.5 hPa | - | - | - | - |
| 1778046131 | 13.33° C | 66% | 871.5 hPa | - | - | - | - |
| 1778045231 | 12.22° C | 73% | 871.4 hPa | - | - | - | - |
| 1778044331 | 10° C | 83% | 871.6 hPa | - | - | - | - |
| 1778043431 | 10° C | 84% | 871.4 hPa | - | - | - | - |
| 1778041630 | 10° C | 81% | 871.2 hPa | - | - | - | - |
| 1778040730 | 11.11° C | 68% | 871.1 hPa | - | - | - | - |
| 1778038930 | 12.22° C | 68% | 871.2 hPa | - | - | - | - |
| 1778038030 | 9.44° C | 77% | 871.2 hPa | - | - | - | - |
| 1778037130 | 10° C | 74% | 871.3 hPa | - | - | - | - |
| 1778036229 | 9.44° C | 75% | 871.4 hPa | - | - | - | - |
| 1778035329 | 9.44° C | 71% | 871.5 hPa | - | - | - | - |
| 1778034430 | 9.44° C | 68% | 871.6 hPa | - | - | - | - |
| 1778033529 | 9.44° C | 66% | 871.7 hPa | - | - | - | - |
| 1778032629 | 9.44° C | 66% | 871.8 hPa | - | - | - | - |
| 1778031729 | 9.44° C | 65% | 872 hPa | - | - | - | - |
| 1778030829 | 10° C | 63% | 872 hPa | - | - | - | - |
| 1778029931 | 9.44° C | 62% | 872 hPa | - | - | - | - |
| 1778022730 | 10.56° C | 56% | 872.4 hPa | - | - | - | - |
| 1778020930 | 11.11° C | 53% | 872.5 hPa | - | - | - | - |
| 1778020030 | 11.11° C | 52% | 872.5 hPa | - | - | - | - |
| 1778019130 | 11.11° C | 50% | 872.7 hPa | - | - | - | - |
* Rain since midnight (hover to see other rain measurements)
** Current wind speed in m/s (hover to see current wind gust speed)